Time;durP1;ratioP1;P1;durP2;ratioP2;P2;SDS_P1;SDS_P2;PMS_P1;PMS_P2;Temp;Humidity;BMP_temperature;BMP_pressure;BME280_temperature;BME280_humidity;BME280_pressure;Samples;Min_cycle;Max_cycle;Signal;HPM_P1;HPM_P2
2022/01/03 00:02:07;;;;;;;9.68;1.80;;;;;;;;;;5071973;28;20057;-63
2022/01/03 00:04:34;;;;;;;9.23;1.63;;;;;;;;;;5072023;28;20124;-63
2022/01/03 00:07:01;;;;;;;10.02;1.65;;;;;;;;;;5071441;28;20115;-63
2022/01/03 00:09:27;;;;;;;14.48;2.33;;;;;;;;;;5071872;28;20575;-63
2022/01/03 00:11:53;;;;;;;4.30;1.10;;;;;;;;;;5071899;28;20418;-63
2022/01/03 00:14:19;;;;;;;15.00;1.77;;;;;;;;;;5071174;28;20047;-63
2022/01/03 00:16:45;;;;;;;20.02;2.33;;;;;;;;;;5071706;28;20074;-63
2022/01/03 00:19:11;;;;;;;14.45;2.40;;;;;;;;;;5072207;28;20460;-63
2022/01/03 00:21:40;;;;;;;18.83;2.83;;;;;;;;;;5071166;28;20049;-63
2022/01/03 00:24:08;;;;;;;19.15;2.35;;;;;;;;;;5071742;28;20063;-63
2022/01/03 00:26:35;;;;;;;11.07;1.95;;;;;;;;;;5071651;28;20052;-63
2022/01/03 00:29:01;;;;;;;19.95;2.72;;;;;;;;;;5071187;28;20040;-63
2022/01/03 00:31:37;;;;;;;14.38;1.92;;;;;;;;;;5071214;28;20044;-63
2022/01/03 00:34:05;;;;;;;16.85;2.25;;;;;;;;;;5071393;28;20072;-63
2022/01/03 00:36:31;;;;;;;18.40;2.75;;;;;;;;;;5070795;28;20142;-63
2022/01/03 00:38:57;;;;;;;28.00;2.85;;;;;;;;;;5071452;28;20501;-63
2022/01/03 00:41:24;;;;;;;18.75;3.17;;;;;;;;;;5070686;28;20052;-63
2022/01/03 00:43:54;;;;;;;23.98;2.83;;;;;;;;;;5070565;28;20036;-63
2022/01/03 00:46:20;;;;;;;18.90;3.13;;;;;;;;;;5070931;28;20055;-63
2022/01/03 00:48:46;;;;;;;28.95;3.17;;;;;;;;;;5071322;28;20515;-63
2022/01/03 00:51:17;;;;;;;18.10;3.05;;;;;;;;;;5070462;28;20151;-63
2022/01/03 00:53:43;;;;;;;20.10;2.80;;;;;;;;;;5071205;28;20051;-63
2022/01/03 00:56:29;;;;;;;21.67;2.85;;;;;;;;;;5071134;28;20040;-63
2022/01/03 00:58:59;;;;;;;23.30;3.17;;;;;;;;;;5070295;28;20068;-63
2022/01/03 01:01:25;;;;;;;21.42;2.50;;;;;;;;;;5071073;28;20102;-63
2022/01/03 01:03:55;;;;;;;22.48;2.65;;;;;;;;;;5070494;28;20040;-63
2022/01/03 01:06:23;;;;;;;19.70;2.75;;;;;;;;;;5070401;28;20090;-63
2022/01/03 01:08:54;;;;;;;18.83;3.55;;;;;;;;;;5070872;28;20048;-63
2022/01/03 01:11:23;;;;;;;22.98;3.03;;;;;;;;;;5070519;28;20052;-63
2022/01/03 01:13:49;;;;;;;19.80;3.20;;;;;;;;;;5070235;28;20491;-63
2022/01/03 01:16:16;;;;;;;18.77;3.03;;;;;;;;;;5070972;28;20043;-63
2022/01/03 01:18:42;;;;;;;20.67;3.60;;;;;;;;;;5070731;28;20041;-63
2022/01/03 01:21:08;;;;;;;22.83;3.20;;;;;;;;;;5070086;28;20090;-63
2022/01/03 01:23:34;;;;;;;18.70;2.88;;;;;;;;;;5070384;28;20040;-63
2022/01/03 01:28:45;;;;;;;15.63;2.90;;;;;;;;;;5070473;28;20499;-63
2022/01/03 01:31:12;;;;;;;18.23;3.15;;;;;;;;;;5070345;28;20047;-63
2022/01/03 01:33:38;;;;;;;17.90;2.83;;;;;;;;;;5070303;28;20033;-63
2022/01/03 01:36:06;;;;;;;23.13;3.25;;;;;;;;;;5068402;28;20119;-63
2022/01/03 01:38:33;;;;;;;21.63;2.55;;;;;;;;;;5070242;28;20037;-63
2022/01/03 01:41:01;;;;;;;26.08;4.03;;;;;;;;;;5070477;28;20347;-63
2022/01/03 01:43:30;;;;;;;23.92;3.60;;;;;;;;;;5069752;28;20037;-63
2022/01/03 01:45:57;;;;;;;22.00;3.05;;;;;;;;;;5070520;28;20127;-63
2022/01/03 01:48:24;;;;;;;16.02;2.97;;;;;;;;;;5070410;28;20033;-63
2022/01/03 01:50:52;;;;;;;26.85;3.42;;;;;;;;;;5069655;28;20072;-63
2022/01/03 01:53:21;;;;;;;23.25;3.05;;;;;;;;;;5069391;28;20052;-63
2022/01/03 01:55:49;;;;;;;21.42;3.80;;;;;;;;;;5102804;28;20051;-63
2022/01/03 01:58:25;;;;;;;25.00;3.92;;;;;;;;;;5069614;28;20519;-63
2022/01/03 02:00:57;;;;;;;20.63;2.90;;;;;;;;;;5070200;28;20048;-63
2022/01/03 02:03:49;;;;;;;25.88;2.85;;;;;;;;;;5069444;28;20044;-63
2022/01/03 02:06:23;;;;;;;22.98;3.08;;;;;;;;;;5068935;28;20557;-63
2022/01/03 02:09:09;;;;;;;19.75;3.28;;;;;;;;;;5070088;28;20132;-63
2022/01/03 02:11:50;;;;;;;19.67;2.88;;;;;;;;;;5069023;28;20135;-63
2022/01/03 02:14:16;;;;;;;18.88;2.90;;;;;;;;;;5102604;28;20075;-63
2022/01/03 02:16:43;;;;;;;21.13;3.80;;;;;;;;;;5102499;28;20049;-63
2022/01/03 02:19:09;;;;;;;25.42;3.70;;;;;;;;;;5069436;28;20131;-63
2022/01/03 02:21:35;;;;;;;21.73;3.28;;;;;;;;;;5070095;28;20041;-63
2022/01/03 02:24:03;;;;;;;24.38;2.70;;;;;;;;;;5069585;28;20048;-63
2022/01/03 02:26:29;;;;;;;25.35;3.03;;;;;;;;;;5069059;28;20056;-63
2022/01/03 02:28:55;;;;;;;27.50;3.78;;;;;;;;;;5070005;28;20136;-63
2022/01/03 02:31:22;;;;;;;24.00;3.13;;;;;;;;;;5069821;28;20040;-63
2022/01/03 02:33:48;;;;;;;23.83;3.28;;;;;;;;;;5069027;28;20074;-63
2022/01/03 02:36:14;;;;;;;20.98;3.53;;;;;;;;;;5069949;28;20036;-63
2022/01/03 02:38:40;;;;;;;20.92;3.22;;;;;;;;;;5069829;28;20044;-63
2022/01/03 02:41:06;;;;;;;19.38;3.67;;;;;;;;;;5069289;28;20041;-63
2022/01/03 02:43:32;;;;;;;21.15;2.95;;;;;;;;;;5069698;28;20111;-63
2022/01/03 02:45:58;;;;;;;30.27;3.80;;;;;;;;;;5069857;28;20047;-63
2022/01/03 02:48:26;;;;;;;22.58;3.03;;;;;;;;;;5069095;28;20368;-63
2022/01/03 02:50:52;;;;;;;17.00;2.45;;;;;;;;;;5069560;28;20044;-63
2022/01/03 02:53:19;;;;;;;19.70;3.30;;;;;;;;;;5069563;28;20174;-63
2022/01/03 02:55:45;;;;;;;26.58;3.40;;;;;;;;;;5069124;28;20693;-63
2022/01/03 02:58:11;;;;;;;20.02;3.03;;;;;;;;;;5069492;28;20327;-63
2022/01/03 03:00:44;;;;;;;24.98;2.83;;;;;;;;;;5069536;28;20060;-63
2022/01/03 03:03:11;;;;;;;26.98;3.60;;;;;;;;;;5069480;28;20082;-63
2022/01/03 03:05:37;;;;;;;25.63;3.72;;;;;;;;;;5073160;28;20072;-63
2022/01/03 03:08:03;;;;;;;26.10;3.40;;;;;;;;;;5073312;28;20475;-63
2022/01/03 03:10:29;;;;;;;27.73;4.07;;;;;;;;;;5072181;28;20403;-63
2022/01/03 03:12:55;;;;;;;30.98;3.47;;;;;;;;;;5072817;28;20231;-63
2022/01/03 03:15:21;;;;;;;23.45;2.97;;;;;;;;;;5073165;28;20589;-63
2022/01/03 03:17:48;;;;;;;23.67;3.40;;;;;;;;;;5072116;28;20076;-63
2022/01/03 03:20:15;;;;;;;23.02;3.38;;;;;;;;;;5073039;28;20041;-63
2022/01/03 03:22:42;;;;;;;29.55;4.38;;;;;;;;;;5072983;28;20079;-63
2022/01/03 03:25:10;;;;;;;22.75;2.90;;;;;;;;;;5071779;28;20056;-63
2022/01/03 03:27:42;;;;;;;20.35;2.97;;;;;;;;;;5072971;28;20075;-63
2022/01/03 03:30:09;;;;;;;23.48;3.72;;;;;;;;;;5072392;28;20048;-63
2022/01/03 03:32:35;;;;;;;17.25;2.38;;;;;;;;;;5072243;28;20402;-63
2022/01/03 03:35:01;;;;;;;24.83;3.30;;;;;;;;;;5072738;28;20172;-63
2022/01/03 03:37:27;;;;;;;24.55;3.03;;;;;;;;;;5072806;28;20561;-63
2022/01/03 03:39:53;;;;;;;24.48;4.40;;;;;;;;;;5072050;28;20075;-63
2022/01/03 03:42:19;;;;;;;27.30;3.92;;;;;;;;;;5072614;28;20502;-63
2022/01/03 03:44:46;;;;;;;22.38;3.72;;;;;;;;;;5072786;28;20123;-63
2022/01/03 03:47:12;;;;;;;25.27;3.80;;;;;;;;;;5071918;28;20405;-63
2022/01/03 03:49:38;;;;;;;37.17;3.60;;;;;;;;;;5072258;28;20037;-63
2022/01/03 03:52:05;;;;;;;29.33;3.55;;;;;;;;;;5072333;28;20068;-63
2022/01/03 03:54:31;;;;;;;20.90;3.30;;;;;;;;;;5071898;28;20036;-63
2022/01/03 03:56:58;;;;;;;26.80;3.40;;;;;;;;;;5072139;28;20044;-63
2022/01/03 03:59:24;;;;;;;27.92;4.78;;;;;;;;;;5072250;28;20039;-63
2022/01/03 04:01:51;;;;;;;29.27;3.65;;;;;;;;;;5071611;28;20548;-63
2022/01/03 04:04:17;;;;;;;22.65;3.38;;;;;;;;;;5104533;28;20044;-63
2022/01/03 04:06:43;;;;;;;23.13;3.58;;;;;;;;;;5072267;28;20041;-63
2022/01/03 04:09:09;;;;;;;28.88;3.72;;;;;;;;;;5071515;28;20452;-63
2022/01/03 04:11:35;;;;;;;20.33;3.00;;;;;;;;;;5072159;28;20044;-63
2022/01/03 04:14:01;;;;;;;32.83;3.63;;;;;;;;;;5072323;28;20364;-63
2022/01/03 04:16:27;;;;;;;27.15;3.45;;;;;;;;;;5071138;28;20044;-63
2022/01/03 04:18:53;;;;;;;22.35;3.25;;;;;;;;;;5071742;28;20044;-63
2022/01/03 04:21:19;;;;;;;21.05;3.03;;;;;;;;;;5071858;28;20040;-63
2022/01/03 04:23:45;;;;;;;20.45;3.33;;;;;;;;;;5071348;28;20057;-63
2022/01/03 04:26:11;;;;;;;31.75;3.97;;;;;;;;;;5070773;28;20041;-63
2022/01/03 04:28:38;;;;;;;25.30;4.30;;;;;;;;;;5071857;28;20067;-63
2022/01/03 04:31:04;;;;;;;29.58;3.97;;;;;;;;;;5071399;28;20137;-63
2022/01/03 04:33:30;;;;;;;23.20;3.47;;;;;;;;;;5071028;28;20044;-63
2022/01/03 04:35:56;;;;;;;24.15;3.55;;;;;;;;;;5071815;28;20155;-63
2022/01/03 04:38:22;;;;;;;26.27;3.13;;;;;;;;;;5071423;28;20452;-63
2022/01/03 04:40:49;;;;;;;28.70;3.80;;;;;;;;;;5070726;28;20029;-63
2022/01/03 04:43:15;;;;;;;27.20;4.32;;;;;;;;;;5071553;28;20086;-63
2022/01/03 04:45:41;;;;;;;26.38;3.63;;;;;;;;;;5071463;28;20137;-63
2022/01/03 04:48:07;;;;;;;27.45;4.15;;;;;;;;;;5070836;28;20044;-63
2022/01/03 04:50:33;;;;;;;26.88;4.70;;;;;;;;;;5071260;28;20128;-63
2022/01/03 04:53:00;;;;;;;26.27;4.22;;;;;;;;;;5071245;28;20045;-63
2022/01/03 04:55:25;;;;;;;34.75;4.10;;;;;;;;;;5070671;28;20036;-63
2022/01/03 04:57:53;;;;;;;31.25;4.30;;;;;;;;;;5071362;28;20391;-63
2022/01/03 05:00:19;;;;;;;22.77;4.07;;;;;;;;;;5069486;28;20044;-63
2022/01/03 05:02:45;;;;;;;32.13;4.07;;;;;;;;;;5070349;28;20549;-63
2022/01/03 05:05:11;;;;;;;31.38;4.45;;;;;;;;;;5070998;28;20040;-63
2022/01/03 05:07:37;;;;;;;30.13;4.28;;;;;;;;;;5070984;28;20048;-63
2022/01/03 05:10:04;;;;;;;33.45;4.43;;;;;;;;;;5069924;28;20052;-63
2022/01/03 05:12:30;;;;;;;36.22;4.15;;;;;;;;;;5070699;28;20094;-63
2022/01/03 05:14:56;;;;;;;27.60;4.75;;;;;;;;;;5070837;28;20032;-63
2022/01/03 05:17:22;;;;;;;27.00;4.70;;;;;;;;;;5070047;28;20043;-63
2022/01/03 05:19:48;;;;;;;34.33;4.90;;;;;;;;;;5070791;28;20093;-63
2022/01/03 05:22:14;;;;;;;30.45;4.32;;;;;;;;;;5070413;28;20048;-63
2022/01/03 05:24:40;;;;;;;29.85;4.13;;;;;;;;;;5069558;28;20156;-63
2022/01/03 05:27:06;;;;;;;30.77;4.13;;;;;;;;;;5070515;28;20123;-63
2022/01/03 05:29:32;;;;;;;36.40;4.70;;;;;;;;;;5070301;28;20087;-63
2022/01/03 05:31:58;;;;;;;31.20;4.50;;;;;;;;;;5069724;28;20479;-63
2022/01/03 05:34:24;;;;;;;25.45;4.38;;;;;;;;;;5070744;28;20047;-63
2022/01/03 05:36:50;;;;;;;32.08;4.90;;;;;;;;;;5070448;28;20089;-63
2022/01/03 05:39:16;;;;;;;32.90;4.80;;;;;;;;;;5070218;28;20043;-63
2022/01/03 05:41:42;;;;;;;31.77;5.32;;;;;;;;;;5070740;28;20040;-63
2022/01/03 05:44:08;;;;;;;33.03;4.35;;;;;;;;;;5070407;28;20082;-63
2022/01/03 05:46:35;;;;;;;34.28;5.20;;;;;;;;;;5069736;28;20091;-63
2022/01/03 05:49:01;;;;;;;28.85;4.38;;;;;;;;;;5070088;28;20543;-63
2022/01/03 05:51:27;;;;;;;40.63;4.72;;;;;;;;;;5070219;28;20040;-63
2022/01/03 05:53:53;;;;;;;33.75;4.43;;;;;;;;;;5069112;28;20043;-63
2022/01/03 05:56:20;;;;;;;25.65;3.88;;;;;;;;;;5070110;28;20048;-63
2022/01/03 05:58:46;;;;;;;31.52;4.72;;;;;;;;;;5069600;28;20123;-63
2022/01/03 06:01:12;;;;;;;30.90;4.38;;;;;;;;;;5069276;28;20040;-63
2022/01/03 06:03:39;;;;;;;29.45;4.07;;;;;;;;;;5070005;28;20040;-63
2022/01/03 06:08:36;;;;;;;38.53;4.40;;;;;;;;;;5069437;28;20041;-63
2022/01/03 06:11:03;;;;;;;29.27;4.43;;;;;;;;;;5069930;28;20042;-63
2022/01/03 06:13:29;;;;;;;33.33;4.00;;;;;;;;;;5069571;28;20045;-63
2022/01/03 06:15:55;;;;;;;27.70;4.05;;;;;;;;;;5069465;28;20441;-63
2022/01/03 06:18:22;;;;;;;33.20;4.72;;;;;;;;;;5069765;28;20097;-63
2022/01/03 06:20:49;;;;;;;26.67;4.35;;;;;;;;;;5069731;28;20372;-63
2022/01/03 06:23:15;;;;;;;27.77;4.70;;;;;;;;;;5068996;28;20119;-63
2022/01/03 06:25:41;;;;;;;29.85;4.70;;;;;;;;;;5064508;28;20118;-63
2022/01/03 06:28:09;;;;;;;27.40;4.88;;;;;;;;;;5049835;28;20049;-63
2022/01/03 06:30:35;;;;;;;31.23;4.97;;;;;;;;;;5049200;28;20060;-63
2022/01/03 06:33:02;;;;;;;27.55;4.72;;;;;;;;;;5049717;28;20128;-63
2022/01/03 06:35:28;;;;;;;32.75;4.00;;;;;;;;;;5049834;28;20033;-63
2022/01/03 06:37:54;;;;;;;26.42;3.33;;;;;;;;;;5049212;28;20533;-63
2022/01/03 06:40:20;;;;;;;34.42;4.28;;;;;;;;;;5053311;28;20037;-63
2022/01/03 06:42:46;;;;;;;19.73;3.33;;;;;;;;;;5069248;28;20062;-63
2022/01/03 06:45:13;;;;;;;25.70;4.20;;;;;;;;;;5074161;28;20057;-63
2022/01/03 06:47:39;;;;;;;30.33;4.03;;;;;;;;;;5073784;28;20047;-63
2022/01/03 06:50:05;;;;;;;31.40;3.60;;;;;;;;;;5073635;28;20115;-63
2022/01/03 06:52:31;;;;;;;31.05;4.80;;;;;;;;;;5069990;28;20076;-63
2022/01/03 06:54:57;;;;;;;36.00;4.28;;;;;;;;;;5073716;28;20051;-63
2022/01/03 06:57:23;;;;;;;33.20;4.50;;;;;;;;;;5074199;28;20036;-63
2022/01/03 06:59:49;;;;;;;37.17;4.68;;;;;;;;;;5073945;28;20128;-63
2022/01/03 07:02:15;;;;;;;29.73;3.97;;;;;;;;;;5073687;28;20043;-63
2022/01/03 07:04:41;;;;;;;27.40;3.92;;;;;;;;;;5073893;28;20032;-63
2022/01/03 07:07:07;;;;;;;30.50;4.45;;;;;;;;;;5073465;28;20047;-63
2022/01/03 07:09:33;;;;;;;36.65;4.47;;;;;;;;;;5074361;28;20036;-63
2022/01/03 07:11:59;;;;;;;32.17;4.40;;;;;;;;;;5073791;28;20141;-62
2022/01/03 07:19:37;;;;;;;24.23;4.53;;;;;;;;;;5073675;28;20036;-61
2022/01/03 07:22:04;;;;;;;26.13;4.07;;;;;;;;;;5072489;28;20043;-63
2022/01/03 07:24:34;;;;;;;29.88;4.05;;;;;;;;;;5073389;28;20413;-61
2022/01/03 07:27:03;;;;;;;33.90;5.40;;;;;;;;;;5073216;28;20044;-62
2022/01/03 07:29:30;;;;;;;35.45;4.93;;;;;;;;;;5072774;28;20127;-62
2022/01/03 07:31:56;;;;;;;31.40;4.40;;;;;;;;;;5073438;28;20203;-67
2022/01/03 07:34:22;;;;;;;30.83;4.38;;;;;;;;;;5073085;28;20520;-65
2022/01/03 07:36:48;;;;;;;31.88;4.30;;;;;;;;;;5071608;28;20037;-65
2022/01/03 07:39:14;;;;;;;32.67;4.65;;;;;;;;;;5054086;28;20235;-65
2022/01/03 07:41:40;;;;;;;29.90;4.07;;;;;;;;;;5062523;28;20044;-57
2022/01/03 07:44:06;;;;;;;36.00;3.80;;;;;;;;;;5066893;28;20037;-62
2022/01/03 07:46:32;;;;;;;37.10;5.13;;;;;;;;;;5071358;28;20044;-61
2022/01/03 07:48:58;;;;;;;31.90;4.35;;;;;;;;;;5071739;28;20044;-61
2022/01/03 07:51:24;;;;;;;35.80;5.20;;;;;;;;;;5066458;28;20159;-65
2022/01/03 07:53:50;;;;;;;37.08;5.20;;;;;;;;;;5049002;28;20041;-61
2022/01/03 07:56:18;;;;;;;30.58;4.38;;;;;;;;;;5067824;28;20070;-62
2022/01/03 07:58:44;;;;;;;27.08;4.80;;;;;;;;;;5067919;28;20162;-60
2022/01/03 08:01:11;;;;;;;38.60;5.07;;;;;;;;;;5069848;28;20456;-60
2022/01/03 08:03:37;;;;;;;32.75;4.13;;;;;;;;;;5070768;28;20042;-61
2022/01/03 08:06:03;;;;;;;34.55;6.10;;;;;;;;;;5067796;28;20486;-63
2022/01/03 08:08:29;;;;;;;34.80;5.38;;;;;;;;;;5070356;28;20079;-60
2022/01/03 08:10:55;;;;;;;31.23;4.50;;;;;;;;;;5068642;28;20032;-60
2022/01/03 08:13:21;;;;;;;26.13;4.68;;;;;;;;;;5068162;28;20033;-59
2022/01/03 08:15:47;;;;;;;33.05;4.85;;;;;;;;;;5069068;28;20483;-59
2022/01/03 08:18:14;;;;;;;30.48;3.95;;;;;;;;;;5065556;28;20577;-60
2022/01/03 08:20:40;;;;;;;32.33;4.43;;;;;;;;;;5056625;28;20032;-59
2022/01/03 08:23:06;;;;;;;28.90;4.13;;;;;;;;;;5064668;28;20495;-61
2022/01/03 08:25:37;;;;;;;27.42;4.63;;;;;;;;;;5061154;28;20455;-61
2022/01/03 08:28:04;;;;;;;28.42;4.65;;;;;;;;;;5065639;28;20040;-60
2022/01/03 08:30:30;;;;;;;24.20;4.07;;;;;;;;;;5066430;28;20049;-60
2022/01/03 08:32:56;;;;;;;32.63;5.43;;;;;;;;;;5059271;28;20052;-60
2022/01/03 08:35:24;;;;;;;30.42;4.82;;;;;;;;;;5061576;28;20028;-61
2022/01/03 08:37:50;;;;;;;35.47;4.95;;;;;;;;;;5069725;28;20048;-61
2022/01/03 08:40:16;;;;;;;32.13;4.72;;;;;;;;;;5067939;28;20036;-60
2022/01/03 08:42:42;;;;;;;33.95;5.13;;;;;;;;;;5069932;28;20153;-59
2022/01/03 08:45:09;;;;;;;37.53;4.82;;;;;;;;;;5069701;28;20063;-59
2022/01/03 08:47:35;;;;;;;26.95;4.22;;;;;;;;;;5068681;28;20047;-59
2022/01/03 08:50:01;;;;;;;33.70;4.95;;;;;;;;;;5068667;28;20040;-61
2022/01/03 08:52:27;;;;;;;38.45;4.22;;;;;;;;;;5070300;28;20094;-60
2022/01/03 08:54:53;;;;;;;25.25;4.25;;;;;;;;;;5070194;28;20036;-58
2022/01/03 08:57:21;;;;;;;39.17;4.57;;;;;;;;;;5070570;28;20033;-60
2022/01/03 08:59:47;;;;;;;32.03;4.93;;;;;;;;;;5068475;28;20040;-61
2022/01/03 09:02:14;;;;;;;28.40;4.15;;;;;;;;;;5069995;28;20429;-60
2022/01/03 09:04:40;;;;;;;34.92;4.68;;;;;;;;;;5069829;28;20044;-60
2022/01/03 09:07:07;;;;;;;26.77;4.15;;;;;;;;;;5069858;28;20045;-56
2022/01/03 09:09:34;;;;;;;25.02;4.70;;;;;;;;;;5066341;28;20056;-59
2022/01/03 09:12:01;;;;;;;32.22;4.63;;;;;;;;;;5066945;28;20052;-59
2022/01/03 09:14:27;;;;;;;35.05;4.43;;;;;;;;;;5063772;28;20033;-60
2022/01/03 09:16:53;;;;;;;26.60;3.72;;;;;;;;;;5069179;28;20081;-61
2022/01/03 09:19:19;;;;;;;36.97;5.25;;;;;;;;;;5070304;28;20064;-59
2022/01/03 09:21:45;;;;;;;23.65;3.83;;;;;;;;;;5066829;28;20045;-59
2022/01/03 09:24:27;;;;;;;29.65;3.83;;;;;;;;;;5068088;28;20105;-57
2022/01/03 09:29:39;;;;;;;26.65;3.30;;;;;;;;;;5063202;28;20066;-59
2022/01/03 09:32:06;;;;;;;27.52;4.53;;;;;;;;;;5061146;28;20048;-58
2022/01/03 09:34:32;;;;;;;26.20;3.53;;;;;;;;;;5066517;28;20040;-61
2022/01/03 09:36:58;;;;;;;26.23;4.97;;;;;;;;;;5066908;28;20037;-61
2022/01/03 09:39:24;;;;;;;20.55;4.18;;;;;;;;;;5067966;28;20044;-60
2022/01/03 09:41:58;;;;;;;38.08;4.30;;;;;;;;;;5063309;28;20039;-60
2022/01/03 09:44:29;;;;;;;27.08;4.43;;;;;;;;;;5063054;28;20044;-61
2022/01/03 09:46:55;;;;;;;25.65;3.95;;;;;;;;;;5062657;28;20048;-61
2022/01/03 09:49:22;;;;;;;22.60;3.50;;;;;;;;;;5068586;28;20047;-59
2022/01/03 09:51:49;;;;;;;25.20;3.95;;;;;;;;;;5061507;28;20045;-60
2022/01/03 09:54:15;;;;;;;27.98;4.47;;;;;;;;;;5068882;28;20125;-59
2022/01/03 09:56:42;;;;;;;32.35;4.78;;;;;;;;;;5070114;28;20040;-60
2022/01/03 09:59:09;;;;;;;34.53;3.85;;;;;;;;;;5067090;28;20664;-59
2022/01/03 10:01:35;;;;;;;34.92;4.57;;;;;;;;;;5068517;28;20032;-57
2022/01/03 10:04:02;;;;;;;30.20;4.80;;;;;;;;;;5063094;28;20127;-60
2022/01/03 10:06:28;;;;;;;27.40;3.97;;;;;;;;;;5068500;28;20072;-59
2022/01/03 10:08:55;;;;;;;28.38;4.35;;;;;;;;;;5068455;28;20102;-59
2022/01/03 10:11:22;;;;;;;23.13;4.88;;;;;;;;;;5069393;28;20037;-59
2022/01/03 10:13:49;;;;;;;26.13;3.97;;;;;;;;;;5066446;28;20055;-62
2022/01/03 10:16:15;;;;;;;27.65;4.25;;;;;;;;;;5073563;28;20095;-61
2022/01/03 10:18:41;;;;;;;23.02;3.80;;;;;;;;;;5069038;28;20069;-60
2022/01/03 10:21:08;;;;;;;26.95;4.80;;;;;;;;;;5072506;28;20471;-59
2022/01/03 10:23:34;;;;;;;26.35;4.20;;;;;;;;;;5073011;28;20048;-59
2022/01/03 10:26:17;;;;;;;28.83;4.13;;;;;;;;;;5073373;28;20036;-59
2022/01/03 10:28:44;;;;;;;31.00;4.68;;;;;;;;;;5071392;28;20094;-60
2022/01/03 10:31:14;;;;;;;25.83;4.05;;;;;;;;;;5068314;28;20044;-63
2022/01/03 10:33:40;;;;;;;24.77;3.47;;;;;;;;;;5068856;28;20158;-61
2022/01/03 10:36:11;;;;;;;22.88;4.50;;;;;;;;;;5052011;28;20037;-61
2022/01/03 10:38:43;;;;;;;24.73;3.67;;;;;;;;;;5071394;28;20052;-60
2022/01/03 10:41:16;;;;;;;31.53;4.67;;;;;;;;;;5068992;28;20033;-60
2022/01/03 10:43:43;;;;;;;23.50;3.85;;;;;;;;;;5068901;28;20044;-60
2022/01/03 10:46:19;;;;;;;21.98;4.43;;;;;;;;;;5072823;28;20036;-61
2022/01/03 10:48:47;;;;;;;25.20;3.35;;;;;;;;;;5069654;28;20067;-62
2022/01/03 10:51:20;;;;;;;25.88;3.90;;;;;;;;;;5069572;28;20544;-61
2022/01/03 10:53:46;;;;;;;25.52;4.20;;;;;;;;;;5070144;28;20089;-62
2022/01/03 10:56:29;;;;;;;29.55;3.65;;;;;;;;;;5069450;28;20047;-61
2022/01/03 10:58:56;;;;;;;21.02;3.72;;;;;;;;;;5070921;28;20068;-60
2022/01/03 11:01:23;;;;;;;27.73;3.92;;;;;;;;;;5069616;28;20372;-58
2022/01/03 11:03:50;;;;;;;21.38;4.13;;;;;;;;;;5071506;28;20103;-62
2022/01/03 11:11:41;;;;;;;30.33;4.13;;;;;;;;;;5071295;28;20063;-61
2022/01/03 11:14:08;;;;;;;22.23;3.40;;;;;;;;;;5069243;28;20663;-61
2022/01/03 11:16:41;;;;;;;26.60;3.42;;;;;;;;;;5068351;28;20471;-61
2022/01/03 11:19:07;;;;;;;19.92;3.60;;;;;;;;;;5070545;28;20175;-61
2022/01/03 11:21:36;;;;;;;19.10;3.33;;;;;;;;;;5072510;28;20033;-60
2022/01/03 11:24:10;;;;;;;31.02;4.28;;;;;;;;;;5070937;28;20059;-60
2022/01/03 11:26:40;;;;;;;28.30;4.32;;;;;;;;;;5070483;28;20110;-60
2022/01/03 11:29:06;;;;;;;28.00;4.05;;;;;;;;;;5069599;28;20855;-59
2022/01/03 11:31:33;;;;;;;17.88;3.30;;;;;;;;;;5072308;28;20048;-62
2022/01/03 11:34:01;;;;;;;27.52;3.65;;;;;;;;;;5071280;28;20040;-62
2022/01/03 11:36:27;;;;;;;23.13;3.40;;;;;;;;;;5072011;28;20374;-62
2022/01/03 11:38:57;;;;;;;25.20;3.78;;;;;;;;;;5073106;28;20041;-62
2022/01/03 11:41:23;;;;;;;21.90;3.40;;;;;;;;;;5071108;28;20132;-62
2022/01/03 11:43:49;;;;;;;28.50;3.72;;;;;;;;;;5072676;28;20480;-62
2022/01/03 11:46:15;;;;;;;24.35;3.42;;;;;;;;;;5072421;28;20039;-62
2022/01/03 11:48:41;;;;;;;20.92;3.25;;;;;;;;;;5071780;28;20041;-62
2022/01/03 11:51:09;;;;;;;25.48;3.97;;;;;;;;;;5071892;28;20052;-62
2022/01/03 11:53:36;;;;;;;31.30;3.80;;;;;;;;;;5072109;28;20094;-62
2022/01/03 11:56:09;;;;;;;27.63;4.25;;;;;;;;;;5069285;28;20032;-62
2022/01/03 11:58:40;;;;;;;;;;;;;;;;;;5072080;28;20086;-63
2022/01/03 12:03:54;;;;;;;27.40;4.30;;;;;;;;;;5057920;28;20078;-59
2022/01/03 12:06:28;;;;;;;28.70;4.03;;;;;;;;;;5071969;28;20056;-58
2022/01/03 12:09:14;;;;;;;22.83;3.67;;;;;;;;;;5076341;28;20045;-60
2022/01/03 12:11:53;;;;;;;26.02;4.00;;;;;;;;;;5071711;28;20080;-61
2022/01/03 12:14:19;;;;;;;28.13;4.55;;;;;;;;;;5070037;28;20123;-61
2022/01/03 12:16:48;;;;;;;26.25;4.00;;;;;;;;;;5071485;28;20036;-61
2022/01/03 12:19:31;;;;;;;28.90;3.67;;;;;;;;;;5070316;28;20507;-60
2022/01/03 12:21:58;;;;;;;24.55;4.07;;;;;;;;;;5068259;28;20773;-60
2022/01/03 12:24:28;;;;;;;29.58;4.35;;;;;;;;;;5070387;28;20399;-60
2022/01/03 12:27:12;;;;;;;24.92;3.75;;;;;;;;;;5070023;28;20045;-61
2022/01/03 12:29:50;;;;;;;24.60;4.13;;;;;;;;;;5062276;28;20036;-59
2022/01/03 12:32:16;;;;;;;38.63;4.43;;;;;;;;;;5066313;28;20175;-57
2022/01/03 12:34:42;;;;;;;29.35;4.72;;;;;;;;;;5074190;28;20036;-61
2022/01/03 12:37:19;;;;;;;25.80;4.10;;;;;;;;;;5069580;28;20452;-59
2022/01/03 12:40:03;;;;;;;31.15;4.60;;;;;;;;;;5070553;28;20036;-60
2022/01/03 12:42:48;;;;;;;31.58;6.63;;;;;;;;;;5070472;28;20042;-59
2022/01/03 12:45:17;;;;;;;21.60;3.10;;;;;;;;;;5064634;28;20048;-59
2022/01/03 12:47:44;;;;;;;31.85;4.32;;;;;;;;;;5070253;28;20040;-60
2022/01/03 12:50:27;;;;;;;22.83;3.55;;;;;;;;;;5070257;28;20086;-58
2022/01/03 12:52:54;;;;;;;30.67;3.58;;;;;;;;;;5068631;28;20064;-59
2022/01/03 12:55:39;;;;;;;25.55;4.47;;;;;;;;;;5069244;28;20052;-60
2022/01/03 12:58:05;;;;;;;30.60;4.22;;;;;;;;;;5072369;28;20032;-61
2022/01/03 13:00:41;;;;;;;27.33;4.90;;;;;;;;;;5069398;28;20040;-61
2022/01/03 13:03:20;;;;;;;33.85;4.00;;;;;;;;;;5070173;28;20105;-60
2022/01/03 13:06:05;;;;;;;24.33;4.00;;;;;;;;;;5067211;28;20789;-61
2022/01/03 13:08:35;;;;;;;26.00;4.20;;;;;;;;;;5072407;28;20394;-60
2022/01/03 13:11:06;;;;;;;26.33;3.92;;;;;;;;;;5068846;28;20044;-60
2022/01/03 13:13:32;;;;;;;19.67;3.72;;;;;;;;;;5065806;28;20070;-59
2022/01/03 13:15:58;;;;;;;26.67;3.72;;;;;;;;;;5069152;28;20395;-59
2022/01/03 13:18:25;;;;;;;29.70;4.55;;;;;;;;;;5070593;28;20116;-59
2022/01/03 13:20:55;;;;;;;17.10;3.33;;;;;;;;;;5069719;28;20110;-60
2022/01/03 13:23:21;;;;;;;31.90;4.47;;;;;;;;;;5069822;28;20047;-60
2022/01/03 13:25:47;;;;;;;22.85;4.40;;;;;;;;;;5069690;28;20090;-56
2022/01/03 13:28:13;;;;;;;28.58;4.82;;;;;;;;;;5070213;28;20563;-60
2022/01/03 13:30:39;;;;;;;24.95;4.70;;;;;;;;;;5070477;28;20031;-58
2022/01/03 13:33:05;;;;;;;33.13;4.35;;;;;;;;;;5076007;28;20348;-59
2022/01/03 13:35:31;;;;;;;35.25;5.22;;;;;;;;;;5071623;28;20034;-60
2022/01/03 13:37:57;;;;;;;31.15;4.25;;;;;;;;;;5071809;28;20127;-58
2022/01/03 13:40:23;;;;;;;25.42;4.03;;;;;;;;;;5069532;28;20047;-61
2022/01/03 13:43:01;;;;;;;28.92;4.35;;;;;;;;;;5068040;28;20048;-61
2022/01/03 13:50:59;;;;;;;28.15;3.88;;;;;;;;;;5065144;28;20055;-60
2022/01/03 13:53:25;;;;;;;33.80;5.45;;;;;;;;;;5066909;28;20133;-57
2022/01/03 13:55:52;;;;;;;25.02;4.05;;;;;;;;;;5066089;28;20048;-59
2022/01/03 13:58:18;;;;;;;22.13;4.10;;;;;;;;;;5069987;28;20396;-60
2022/01/03 14:00:45;;;;;;;30.13;3.90;;;;;;;;;;5069202;28;20040;-61
2022/01/03 14:03:15;;;;;;;26.67;3.90;;;;;;;;;;5070471;28;20551;-63
2022/01/03 14:05:42;;;;;;;26.90;4.22;;;;;;;;;;5070132;28;20052;-62
2022/01/03 14:08:08;;;;;;;29.10;4.25;;;;;;;;;;5069301;28;20094;-59
2022/01/03 14:10:40;;;;;;;31.00;4.43;;;;;;;;;;5069114;28;20040;-60
2022/01/03 14:13:06;;;;;;;30.50;5.15;;;;;;;;;;5068407;28;20383;-60
2022/01/03 14:15:33;;;;;;;29.13;4.35;;;;;;;;;;5070465;28;20461;-61
2022/01/03 14:17:59;;;;;;;26.05;4.57;;;;;;;;;;5068988;28;20063;-60
2022/01/03 14:20:25;;;;;;;28.17;3.92;;;;;;;;;;5057616;28;20064;-60
2022/01/03 14:22:52;;;;;;;28.02;5.13;;;;;;;;;;5065367;28;20033;-61
2022/01/03 14:25:19;;;;;;;24.30;4.53;;;;;;;;;;5066515;28;20060;-61
2022/01/03 14:27:47;;;;;;;23.33;4.18;;;;;;;;;;5069898;28;20041;-62
2022/01/03 14:30:21;;;;;;;24.35;3.72;;;;;;;;;;5069050;28;20070;-62
2022/01/03 14:32:48;;;;;;;30.70;4.63;;;;;;;;;;5068778;28;20044;-62
2022/01/03 14:35:14;;;;;;;30.13;4.93;;;;;;;;;;5069844;28;20139;-61
2022/01/03 14:37:41;;;;;;;23.25;3.70;;;;;;;;;;5069917;28;20044;-62
2022/01/03 14:40:08;;;;;;;30.23;4.35;;;;;;;;;;5069088;28;20669;-62
2022/01/03 14:42:35;;;;;;;25.52;4.22;;;;;;;;;;5069841;28;20045;-61
2022/01/03 14:45:13;;;;;;;34.92;4.47;;;;;;;;;;5069388;28;20045;-59
2022/01/03 14:47:39;;;;;;;21.45;3.42;;;;;;;;;;5069657;28;20041;-62
2022/01/03 14:50:05;;;;;;;21.13;4.40;;;;;;;;;;5068746;28;20471;-60
2022/01/03 14:52:42;;;;;;;26.27;3.83;;;;;;;;;;5067538;28;20063;-59
2022/01/03 14:55:10;;;;;;;31.23;4.47;;;;;;;;;;5066429;28;20041;-61
2022/01/03 14:57:44;;;;;;;27.40;4.20;;;;;;;;;;5051621;28;20368;-61
2022/01/03 15:00:10;;;;;;;38.33;4.68;;;;;;;;;;5071633;28;20052;-60
2022/01/03 15:02:36;;;;;;;24.08;3.50;;;;;;;;;;5073007;28;20041;-60